createdAt,value
2017-08-26T00:00:15.471Z,18.85
2017-08-26T00:02:48.426Z,18.85
2017-08-26T00:05:16.023Z,18.91
2017-08-26T00:07:43.646Z,18.82
2017-08-26T00:10:11.031Z,18.89
2017-08-26T00:12:38.422Z,18.93
2017-08-26T00:15:05.808Z,18.99
2017-08-26T00:17:33.191Z,19.03
2017-08-26T00:20:00.587Z,19.05
2017-08-26T00:22:27.971Z,19.11
2017-08-26T00:24:55.359Z,19.13
2017-08-26T00:27:22.747Z,19.12
2017-08-26T00:29:50.139Z,19.07
2017-08-26T00:32:17.527Z,19.11
2017-08-26T00:34:44.922Z,19.08
2017-08-26T00:37:12.316Z,18.93
2017-08-26T00:39:39.707Z,18.86
2017-08-26T00:42:07.095Z,18.89
2017-08-26T00:44:34.490Z,18.76
2017-08-26T00:47:01.871Z,18.73
2017-08-26T00:49:29.258Z,18.79
2017-08-26T00:51:56.678Z,18.79
2017-08-26T00:54:24.076Z,18.74
2017-08-26T00:56:51.458Z,18.69
2017-08-26T00:59:18.846Z,18.49
2017-08-26T01:01:46.230Z,18.56
2017-08-26T01:04:13.634Z,18.52
2017-08-26T01:06:41.027Z,18.48
2017-08-26T01:09:08.414Z,18.42
2017-08-26T01:11:35.816Z,18.48
2017-08-26T01:14:03.203Z,18.48
2017-08-26T01:16:30.595Z,18.56
2017-08-26T01:18:57.979Z,18.60
2017-08-26T01:21:25.378Z,18.51
2017-08-26T01:23:52.754Z,18.51
2017-08-26T01:26:20.147Z,18.56
2017-08-26T01:28:47.530Z,18.55
2017-08-26T01:31:14.922Z,18.54
2017-08-26T01:33:42.522Z,18.51
2017-08-26T01:36:09.918Z,18.52
2017-08-26T01:38:37.298Z,18.50
2017-08-26T01:41:04.710Z,18.38
2017-08-26T01:43:32.103Z,18.29
2017-08-26T01:45:59.501Z,18.24
2017-08-26T01:48:26.885Z,18.26
2017-08-26T01:50:54.505Z,18.31
2017-08-26T01:53:21.900Z,18.32
2017-08-26T01:55:49.278Z,18.38
2017-08-26T01:58:16.678Z,18.37
2017-08-26T02:00:44.065Z,18.35
2017-08-26T02:03:11.450Z,18.27
2017-08-26T02:05:38.838Z,18.25
2017-08-26T02:08:06.238Z,18.23
2017-08-26T02:10:33.623Z,18.23
2017-08-26T02:13:01.015Z,18.30
2017-08-26T02:15:28.402Z,18.31
2017-08-26T02:17:55.786Z,18.36
2017-08-26T02:20:23.166Z,18.41
2017-08-26T02:22:50.559Z,18.38
2017-08-26T02:25:17.942Z,18.23
2017-08-26T02:27:45.335Z,18.23
2017-08-26T02:30:12.722Z,18.21
2017-08-26T02:32:40.114Z,18.08
2017-08-26T02:35:07.504Z,18.12
2017-08-26T02:37:34.894Z,18.13
2017-08-26T02:40:02.286Z,18.11
2017-08-26T02:42:29.694Z,18.16
2017-08-26T02:44:57.086Z,18.19
2017-08-26T02:47:24.467Z,18.23
2017-08-26T02:49:51.865Z,18.20
2017-08-26T02:52:19.249Z,18.14
2017-08-26T02:54:46.646Z,18.15
2017-08-26T02:57:14.027Z,18.12
2017-08-26T02:59:41.422Z,18.01
2017-08-26T03:02:08.816Z,18.02
2017-08-26T03:04:36.203Z,18.06
2017-08-26T03:07:03.590Z,18.05
2017-08-26T03:09:30.978Z,18.03
2017-08-26T03:11:58.362Z,17.97
2017-08-26T03:14:25.759Z,17.89
2017-08-26T03:16:53.151Z,17.90
2017-08-26T03:19:20.539Z,17.95
2017-08-26T03:21:47.927Z,18.01
2017-08-26T03:24:15.332Z,18.01
2017-08-26T03:26:43.026Z,17.99
2017-08-26T03:29:10.419Z,17.97
2017-08-26T03:31:37.806Z,17.87
2017-08-26T03:34:05.212Z,17.65
2017-08-26T03:36:32.851Z,17.71
2017-08-26T03:39:00.242Z,17.77
2017-08-26T03:41:27.634Z,17.80
2017-08-26T03:43:55.028Z,17.80
2017-08-26T03:46:22.415Z,17.87
2017-08-26T03:48:49.803Z,17.81
2017-08-26T03:51:17.198Z,17.87
2017-08-26T03:53:44.586Z,17.86
2017-08-26T03:56:11.988Z,17.90
2017-08-26T03:58:39.395Z,17.83
2017-08-26T04:01:06.791Z,17.76
2017-08-26T04:03:34.184Z,17.76
2017-08-26T04:06:01.583Z,17.61
2017-08-26T04:08:28.966Z,17.50
2017-08-26T04:10:56.368Z,17.49
2017-08-26T04:13:23.746Z,17.49
2017-08-26T04:15:51.143Z,17.47
2017-08-26T04:18:18.534Z,17.48
2017-08-26T04:20:45.934Z,17.55
2017-08-26T04:23:13.322Z,17.58
2017-08-26T04:25:40.715Z,17.62
2017-08-26T04:28:08.099Z,17.60
2017-08-26T04:30:35.492Z,17.56
2017-08-26T04:33:02.885Z,17.52
2017-08-26T04:35:30.274Z,17.43
2017-08-26T04:37:57.676Z,17.43
2017-08-26T04:40:25.058Z,17.44
2017-08-26T04:42:52.454Z,17.48
2017-08-26T04:45:20.059Z,17.43
2017-08-26T04:47:47.456Z,17.24
2017-08-26T04:50:14.842Z,17.25
2017-08-26T04:52:42.231Z,17.24
2017-08-26T04:55:09.618Z,17.31
2017-08-26T04:57:37.014Z,17.34
2017-08-26T05:00:04.398Z,17.43
2017-08-26T05:02:31.794Z,17.45
2017-08-26T05:04:59.186Z,17.29
2017-08-26T05:07:26.581Z,17.25
2017-08-26T05:09:53.958Z,17.24
2017-08-26T05:12:21.351Z,17.23
2017-08-26T05:14:48.755Z,17.19
2017-08-26T05:17:16.143Z,17.13
2017-08-26T05:19:43.531Z,17.06
2017-08-26T05:22:10.918Z,17.16
2017-08-26T05:24:38.309Z,17.11
2017-08-26T05:27:05.698Z,17.13
2017-08-26T05:29:33.083Z,17.16
2017-08-26T05:32:00.472Z,17.16
2017-08-26T05:34:27.863Z,17.15
2017-08-26T05:36:55.255Z,17.20
2017-08-26T05:39:22.651Z,17.16
2017-08-26T05:41:50.051Z,17.25
2017-08-26T05:44:17.446Z,17.37
2017-08-26T05:46:44.827Z,17.40
2017-08-26T05:49:12.227Z,17.37
2017-08-26T05:51:39.615Z,17.35
2017-08-26T05:54:07.017Z,17.25
2017-08-26T05:56:34.410Z,17.33
2017-08-26T05:59:01.800Z,17.31
2017-08-26T06:01:29.190Z,17.36
2017-08-26T06:03:56.584Z,17.33
2017-08-26T06:06:23.967Z,17.39
2017-08-26T06:08:51.374Z,17.55
2017-08-26T06:11:18.760Z,17.58
2017-08-26T06:13:46.384Z,17.65
2017-08-26T06:16:13.775Z,17.64
2017-08-26T06:18:41.167Z,17.59
2017-08-26T06:21:08.566Z,17.60
2017-08-26T06:23:35.951Z,17.60
2017-08-26T06:26:03.351Z,17.67
2017-08-26T06:28:30.743Z,17.69
2017-08-26T06:30:58.138Z,17.78
2017-08-26T06:33:25.534Z,17.77
2017-08-26T06:35:52.918Z,17.86
2017-08-26T06:38:20.303Z,17.92
2017-08-26T06:40:47.703Z,17.96
2017-08-26T06:43:15.127Z,18.02
2017-08-26T06:45:42.803Z,18.08
2017-08-26T06:48:10.188Z,18.16
2017-08-26T06:50:37.579Z,18.22
2017-08-26T06:53:04.972Z,18.23
2017-08-26T06:55:32.387Z,18.25
2017-08-26T06:57:59.771Z,18.36
2017-08-26T07:00:27.159Z,18.49
2017-08-26T07:02:54.559Z,18.46
2017-08-26T07:05:21.951Z,18.53
2017-08-26T07:07:49.339Z,18.53
2017-08-26T07:10:16.749Z,18.51
2017-08-26T07:12:44.422Z,18.64
2017-08-26T07:15:11.808Z,18.63
2017-08-26T07:17:39.202Z,18.78
2017-08-26T07:20:06.589Z,18.80
2017-08-26T07:22:34.017Z,18.87
2017-08-26T07:25:01.402Z,18.97
2017-08-26T07:27:28.806Z,19.19
2017-08-26T07:29:56.190Z,19.21
2017-08-26T07:32:23.583Z,19.34
2017-08-26T07:34:50.974Z,19.50
2017-08-26T07:37:18.598Z,19.63
2017-08-26T07:39:45.986Z,19.81
2017-08-26T07:42:13.388Z,19.83
2017-08-26T07:44:40.771Z,19.87
2017-08-26T07:47:08.163Z,19.95
2017-08-26T07:49:35.857Z,20.07
2017-08-26T07:52:03.243Z,20.18
2017-08-26T07:54:30.635Z,20.25
2017-08-26T07:56:58.022Z,20.33
2017-08-26T07:59:25.414Z,20.43
2017-08-26T08:01:52.815Z,20.51
2017-08-26T08:04:20.211Z,20.53
2017-08-26T08:06:47.623Z,20.60
2017-08-26T08:09:15.015Z,20.67
2017-08-26T08:11:42.403Z,20.81
2017-08-26T08:14:09.803Z,20.78
2017-08-26T08:16:37.187Z,20.89
2017-08-26T08:19:04.579Z,20.95
2017-08-26T08:21:31.966Z,21.04
2017-08-26T08:23:59.578Z,21.11
2017-08-26T08:26:27.203Z,21.21
2017-08-26T08:28:54.806Z,21.25
2017-08-26T08:31:22.200Z,21.34
2017-08-26T08:33:49.590Z,21.42
2017-08-26T08:36:16.987Z,21.54
2017-08-26T08:38:44.383Z,21.50
2017-08-26T08:41:11.776Z,21.63
2017-08-26T08:43:39.158Z,21.58
2017-08-26T08:46:06.573Z,21.61
2017-08-26T08:48:33.963Z,21.63
2017-08-26T08:51:01.350Z,21.65
2017-08-26T08:53:28.738Z,21.75
2017-08-26T08:55:56.126Z,21.82
2017-08-26T08:58:23.514Z,21.81
2017-08-26T09:00:50.911Z,21.84
2017-08-26T09:03:18.295Z,21.86
2017-08-26T09:05:45.903Z,21.85
2017-08-26T09:08:13.303Z,21.82
2017-08-26T09:10:40.912Z,21.92
2017-08-26T09:13:08.298Z,21.97
2017-08-26T09:15:35.691Z,22.14
2017-08-26T09:18:03.079Z,22.18
2017-08-26T09:20:30.479Z,22.28
2017-08-26T09:22:57.863Z,22.34
2017-08-26T09:25:25.260Z,22.35
2017-08-26T09:27:52.654Z,22.30
2017-08-26T09:30:20.079Z,22.39
2017-08-26T09:32:47.455Z,22.36
2017-08-26T09:35:14.842Z,22.46
2017-08-26T09:37:42.239Z,22.57
2017-08-26T09:40:09.634Z,22.67
2017-08-26T09:42:37.018Z,22.70
2017-08-26T09:45:04.444Z,22.71
2017-08-26T09:47:31.828Z,22.76
2017-08-26T09:49:59.213Z,22.74
2017-08-26T09:52:26.610Z,22.84
2017-08-26T09:54:54.004Z,22.76
2017-08-26T09:57:21.398Z,22.82
2017-08-26T09:59:48.783Z,22.86
2017-08-26T10:02:16.387Z,22.96
2017-08-26T10:04:43.988Z,23.09
2017-08-26T10:07:11.390Z,23.10
2017-08-26T10:09:38.768Z,23.10
2017-08-26T10:12:06.158Z,23.19
2017-08-26T10:14:33.547Z,23.04
2017-08-26T10:17:00.939Z,23.22
2017-08-26T10:19:28.335Z,23.37
2017-08-26T10:21:55.742Z,23.37
2017-08-26T10:24:23.139Z,23.46
2017-08-26T10:26:50.527Z,23.54
2017-08-26T10:29:18.166Z,23.56
2017-08-26T10:31:45.555Z,23.64
2017-08-26T10:34:12.954Z,23.79
2017-08-26T10:36:40.343Z,23.80
2017-08-26T10:39:07.743Z,23.86
2017-08-26T10:41:35.122Z,23.85
2017-08-26T10:44:02.519Z,23.95
2017-08-26T10:46:29.910Z,23.99
2017-08-26T10:48:57.307Z,24.01
2017-08-26T10:51:24.699Z,24.17
2017-08-26T10:53:52.103Z,24.17
2017-08-26T10:56:19.494Z,24.27
2017-08-26T10:58:46.887Z,24.42
2017-08-26T11:01:14.275Z,24.48
2017-08-26T11:03:41.667Z,24.60
2017-08-26T11:06:09.062Z,24.74
2017-08-26T11:08:36.658Z,24.78
2017-08-26T11:11:04.206Z,24.82
2017-08-26T11:13:31.583Z,24.96
2017-08-26T11:15:58.966Z,25.13
2017-08-26T11:18:26.359Z,25.08
2017-08-26T11:20:53.754Z,25.12
2017-08-26T11:23:21.148Z,25.22
2017-08-26T11:25:48.551Z,25.25
2017-08-26T11:28:15.933Z,25.15
2017-08-26T11:30:43.336Z,25.16
2017-08-26T11:33:10.722Z,25.29
2017-08-26T11:35:38.121Z,25.07
2017-08-26T11:38:05.508Z,25.21
2017-08-26T11:40:32.903Z,25.30
2017-08-26T11:43:00.507Z,25.24
2017-08-26T11:45:27.907Z,25.24
2017-08-26T11:47:55.300Z,25.32
2017-08-26T11:50:22.701Z,25.30
2017-08-26T11:52:50.093Z,25.21
2017-08-26T11:55:17.475Z,25.26
2017-08-26T11:57:44.870Z,25.37
2017-08-26T12:00:12.263Z,25.37
2017-08-26T12:02:39.651Z,25.43
2017-08-26T12:05:07.039Z,25.49
2017-08-26T12:07:34.444Z,25.51
2017-08-26T12:10:01.832Z,25.67
2017-08-26T12:12:29.235Z,25.69
2017-08-26T12:14:56.623Z,25.74
2017-08-26T12:17:24.020Z,25.92
2017-08-26T12:19:51.411Z,25.98
2017-08-26T12:22:18.799Z,26.03
2017-08-26T12:24:46.209Z,25.99
2017-08-26T12:27:13.583Z,25.87
2017-08-26T12:29:40.971Z,25.86
2017-08-26T12:32:08.363Z,25.94
2017-08-26T12:34:35.753Z,25.94
2017-08-26T12:37:03.146Z,25.96
2017-08-26T12:39:30.546Z,26.00
2017-08-26T12:41:58.007Z,26.15
2017-08-26T12:44:25.383Z,26.26
2017-08-26T12:46:52.779Z,26.44
2017-08-26T12:49:20.171Z,26.38
2017-08-26T12:51:47.563Z,26.40
2017-08-26T12:54:14.959Z,26.50
2017-08-26T12:56:42.346Z,26.58
2017-08-26T12:59:09.951Z,26.57
2017-08-26T13:01:37.494Z,26.49
2017-08-26T13:04:04.906Z,26.42
2017-08-26T13:06:32.380Z,26.39
2017-08-26T13:08:59.771Z,26.44
2017-08-26T13:11:27.159Z,26.18
2017-08-26T13:13:54.560Z,26.19
2017-08-26T13:16:21.952Z,26.39
2017-08-26T13:18:49.347Z,26.47
2017-08-26T13:21:16.739Z,26.56
2017-08-26T13:23:44.145Z,26.60
2017-08-26T13:26:11.526Z,26.59
2017-08-26T13:28:38.935Z,26.71
2017-08-26T13:31:06.534Z,26.80
2017-08-26T13:33:34.147Z,26.87
2017-08-26T13:36:01.531Z,27.01
2017-08-26T13:38:28.935Z,27.13
2017-08-26T13:40:56.324Z,27.08
2017-08-26T13:43:23.715Z,27.16
2017-08-26T13:45:51.098Z,27.28
2017-08-26T13:48:18.486Z,27.37
2017-08-26T13:50:45.875Z,27.47
2017-08-26T13:53:13.267Z,27.53
2017-08-26T13:55:40.691Z,27.60
2017-08-26T13:58:08.078Z,27.68
2017-08-26T14:00:36.455Z,27.59
2017-08-26T14:03:03.849Z,27.54
2017-08-26T14:05:31.264Z,27.51
2017-08-26T14:07:58.631Z,27.62
2017-08-26T14:10:26.022Z,27.69
2017-08-26T14:12:53.421Z,27.68
2017-08-26T14:15:20.813Z,27.75
2017-08-26T14:17:49.067Z,27.72
2017-08-26T14:20:16.459Z,27.79
2017-08-26T14:22:43.851Z,27.69
2017-08-26T14:25:11.257Z,27.53
2017-08-26T14:27:38.640Z,27.56
2017-08-26T14:30:06.039Z,27.64
2017-08-26T14:32:33.431Z,27.58
2017-08-26T14:35:00.819Z,27.40
2017-08-26T14:37:28.220Z,27.38
2017-08-26T14:39:55.627Z,27.31
2017-08-26T14:42:23.027Z,27.12
2017-08-26T14:44:50.412Z,27.14
2017-08-26T14:47:17.803Z,27.14
2017-08-26T14:49:45.198Z,27.15
2017-08-26T14:52:12.592Z,27.33
2017-08-26T14:54:39.974Z,27.32
2017-08-26T14:57:07.388Z,27.35
2017-08-26T14:59:34.787Z,27.37
2017-08-26T15:02:02.183Z,27.33
2017-08-26T15:04:29.567Z,27.39
2017-08-26T15:06:56.999Z,27.33
2017-08-26T15:09:24.383Z,27.31
2017-08-26T15:11:51.774Z,27.40
2017-08-26T15:14:19.162Z,27.37
2017-08-26T15:16:46.567Z,27.38
2017-08-26T15:19:13.961Z,27.31
2017-08-26T15:21:41.347Z,27.09
2017-08-26T15:24:08.733Z,27.10
2017-08-26T15:26:36.334Z,27.14
2017-08-26T15:29:03.715Z,27.18
2017-08-26T15:31:31.111Z,27.13
2017-08-26T15:33:58.498Z,27.04
2017-08-26T15:36:25.887Z,27.05
2017-08-26T15:38:53.283Z,27.13
2017-08-26T15:41:20.670Z,27.25
2017-08-26T15:43:48.067Z,27.22
2017-08-26T15:46:15.457Z,27.22
2017-08-26T15:48:43.067Z,27.24
2017-08-26T15:51:10.450Z,27.27
2017-08-26T15:53:37.843Z,27.20
2017-08-26T15:56:05.232Z,27.26
2017-08-26T15:58:32.626Z,27.24
2017-08-26T16:01:00.011Z,27.29
2017-08-26T16:03:27.627Z,27.27
2017-08-26T16:05:55.016Z,27.22
2017-08-26T16:08:22.412Z,27.24
2017-08-26T16:10:49.794Z,27.34
2017-08-26T16:13:17.191Z,27.34
2017-08-26T16:15:44.790Z,27.38
2017-08-26T16:18:12.203Z,27.40
2017-08-26T16:20:39.592Z,27.48
2017-08-26T16:23:07.190Z,27.61
2017-08-26T16:25:34.787Z,27.66
2017-08-26T16:28:02.178Z,27.75
2017-08-26T16:30:29.567Z,27.78
2017-08-26T16:32:56.958Z,27.81
2017-08-26T16:35:24.386Z,27.87
2017-08-26T16:37:51.775Z,27.81
2017-08-26T16:40:19.167Z,27.78
2017-08-26T16:42:46.558Z,27.81
2017-08-26T16:45:13.974Z,27.76
2017-08-26T16:47:41.375Z,27.65
2017-08-26T16:50:08.974Z,27.59
2017-08-26T16:52:36.383Z,27.51
2017-08-26T16:55:03.763Z,27.56
2017-08-26T16:57:31.155Z,27.51
2017-08-26T16:59:58.545Z,27.54
2017-08-26T17:02:25.932Z,27.64
2017-08-26T17:04:53.323Z,27.55
2017-08-26T17:07:20.708Z,27.48
2017-08-26T17:09:48.135Z,27.46
2017-08-26T17:12:22.180Z,27.53
2017-08-26T17:14:49.592Z,27.50
2017-08-26T17:17:16.987Z,27.45
2017-08-26T17:19:44.392Z,27.27
2017-08-26T17:22:11.792Z,27.09
2017-08-26T17:24:39.175Z,27.14
2017-08-26T17:27:06.579Z,27.18
2017-08-26T17:29:33.971Z,27.17
2017-08-26T17:32:01.415Z,27.17
2017-08-26T17:34:28.811Z,27.22
2017-08-26T17:36:56.214Z,27.17
2017-08-26T17:39:23.610Z,27.02
2017-08-26T17:41:50.998Z,26.72
2017-08-26T17:44:18.396Z,26.60
2017-08-26T17:46:45.807Z,26.63
2017-08-26T17:49:13.187Z,26.70
2017-08-26T17:51:40.591Z,26.78
2017-08-26T17:54:07.987Z,26.90
2017-08-26T17:56:35.387Z,27.00
2017-08-26T17:59:02.772Z,27.07
2017-08-26T18:01:30.170Z,27.13
2017-08-26T18:03:57.563Z,27.20
2017-08-26T18:06:24.955Z,27.02
2017-08-26T18:08:52.351Z,26.82
2017-08-26T18:11:19.743Z,26.75
2017-08-26T18:13:47.996Z,26.63
2017-08-26T18:16:15.411Z,26.61
2017-08-26T18:18:42.799Z,26.65
2017-08-26T18:21:10.207Z,26.72
2017-08-26T18:23:37.575Z,26.76
2017-08-26T18:26:04.967Z,26.78
2017-08-26T18:28:32.359Z,26.77
2017-08-26T18:30:59.746Z,26.72
2017-08-26T18:33:27.143Z,26.79
2017-08-26T18:35:54.539Z,26.82
2017-08-26T18:38:21.937Z,26.74
2017-08-26T18:40:49.327Z,26.69
2017-08-26T18:43:16.719Z,26.74
2017-08-26T18:45:44.318Z,26.73
2017-08-26T18:48:11.710Z,26.74
2017-08-26T18:50:39.112Z,26.59
2017-08-26T18:53:06.503Z,26.20
2017-08-26T18:55:33.898Z,25.99
2017-08-26T18:58:01.290Z,25.89
2017-08-26T19:00:28.693Z,25.62
2017-08-26T19:02:56.088Z,25.52
2017-08-26T19:05:23.483Z,25.59
2017-08-26T19:07:50.880Z,25.55
2017-08-26T19:10:18.274Z,25.54
2017-08-26T19:12:45.694Z,25.48
2017-08-26T19:15:13.094Z,25.46
2017-08-26T19:17:40.491Z,25.52
2017-08-26T19:20:07.891Z,25.59
2017-08-26T19:22:35.278Z,25.65
2017-08-26T19:25:02.902Z,25.75
2017-08-26T19:27:30.279Z,25.75
2017-08-26T19:29:57.678Z,25.79
2017-08-26T19:32:25.117Z,25.84
2017-08-26T19:34:52.823Z,25.89
2017-08-26T19:37:20.607Z,25.91
2017-08-26T19:39:48.484Z,25.91
2017-08-26T19:42:16.258Z,25.91
2017-08-26T19:44:43.987Z,25.91
2017-08-26T19:47:11.618Z,25.88
2017-08-26T19:49:39.363Z,25.91
2017-08-26T19:52:06.790Z,25.87
2017-08-26T19:54:34.199Z,25.89
2017-08-26T19:57:01.600Z,25.75
2017-08-26T19:59:29.003Z,25.69
2017-08-26T20:01:56.418Z,25.70
2017-08-26T20:04:23.815Z,25.74
2017-08-26T20:06:51.223Z,25.68
2017-08-26T20:09:18.619Z,25.68
2017-08-26T20:11:46.023Z,25.65
2017-08-26T20:14:13.435Z,25.63
2017-08-26T20:16:40.827Z,25.62
2017-08-26T20:19:08.242Z,25.59
2017-08-26T20:21:35.831Z,25.60
2017-08-26T20:24:03.689Z,25.46
2017-08-26T20:26:31.334Z,25.47
2017-08-26T20:28:58.727Z,25.45
2017-08-26T20:31:26.127Z,25.34
2017-08-26T20:33:53.526Z,25.25
2017-08-26T20:36:20.931Z,25.25
2017-08-26T20:38:48.331Z,25.24
2017-08-26T20:41:16.019Z,25.10
2017-08-26T20:43:43.410Z,24.99
2017-08-26T20:46:10.806Z,24.93
2017-08-26T20:48:38.207Z,24.82
2017-08-26T20:51:05.611Z,24.82
2017-08-26T20:53:33.015Z,24.72
2017-08-26T20:56:00.425Z,24.72
2017-08-26T20:58:27.827Z,24.65
2017-08-26T21:00:55.223Z,24.55
2017-08-26T21:03:22.629Z,24.50
2017-08-26T21:05:50.235Z,24.49
2017-08-26T21:08:17.858Z,24.40
2017-08-26T21:10:45.255Z,24.39
2017-08-26T21:13:12.667Z,24.29
2017-08-26T21:15:40.065Z,24.27
2017-08-26T21:18:07.471Z,24.27
2017-08-26T21:20:34.867Z,24.21
2017-08-26T21:23:02.278Z,24.14
2017-08-26T21:25:29.671Z,24.05
2017-08-26T21:27:57.082Z,23.95
2017-08-26T21:30:24.483Z,23.94
2017-08-26T21:32:51.896Z,23.83
2017-08-26T21:35:19.290Z,23.70
2017-08-26T21:37:46.694Z,23.68
2017-08-26T21:40:14.086Z,23.77
2017-08-26T21:42:41.497Z,23.56
2017-08-26T21:45:08.890Z,23.44
2017-08-26T21:47:36.292Z,23.40
2017-08-26T21:50:03.687Z,23.39
2017-08-26T21:52:31.082Z,23.37
2017-08-26T21:54:58.479Z,23.17
2017-08-26T21:57:25.874Z,23.08
2017-08-26T21:59:53.288Z,22.94
2017-08-26T22:02:20.707Z,22.89
2017-08-26T22:04:48.110Z,22.92
2017-08-26T22:07:15.503Z,22.98
2017-08-26T22:09:42.907Z,22.97
2017-08-26T22:12:10.299Z,22.78
2017-08-26T22:14:37.710Z,22.64
2017-08-26T22:17:05.114Z,22.44
2017-08-26T22:19:32.520Z,22.39
2017-08-26T22:21:59.915Z,22.30
2017-08-26T22:24:27.319Z,22.18
2017-08-26T22:26:54.715Z,22.28
2017-08-26T22:29:22.115Z,22.06
2017-08-26T22:31:49.514Z,21.81
2017-08-26T22:34:16.924Z,21.64
2017-08-26T22:36:44.320Z,21.63
2017-08-26T22:39:11.723Z,21.70
2017-08-26T22:41:39.135Z,21.72
2017-08-26T22:44:06.518Z,21.65
2017-08-26T22:46:33.923Z,21.74
2017-08-26T22:49:01.319Z,21.64
2017-08-26T22:51:28.720Z,21.58
2017-08-26T22:53:56.110Z,21.63
2017-08-26T22:56:23.511Z,21.61
2017-08-26T22:58:50.911Z,21.65
2017-08-26T23:01:18.314Z,21.73
2017-08-26T23:03:45.717Z,21.75
2017-08-26T23:06:13.107Z,21.67
2017-08-26T23:08:40.499Z,21.79
2017-08-26T23:11:08.711Z,21.82
2017-08-26T23:13:36.107Z,21.76
2017-08-26T23:16:03.502Z,21.78
2017-08-26T23:18:30.899Z,21.61
2017-08-26T23:20:58.310Z,21.59
2017-08-26T23:23:25.739Z,21.53
2017-08-26T23:25:53.139Z,21.50
2017-08-26T23:28:20.534Z,21.55
2017-08-26T23:30:47.932Z,21.59
2017-08-26T23:33:15.336Z,21.61
2017-08-26T23:35:42.737Z,21.65
2017-08-26T23:38:10.138Z,21.62
2017-08-26T23:40:37.543Z,21.61
2017-08-26T23:43:04.949Z,21.71
2017-08-26T23:45:32.342Z,21.76
2017-08-26T23:47:59.751Z,21.74
2017-08-26T23:50:27.151Z,21.53
2017-08-26T23:52:54.555Z,21.56
2017-08-26T23:55:21.959Z,21.62
2017-08-26T23:57:49.383Z,21.67
